createdAt,value
2022-11-20T00:02:10.465Z,3.63
2022-11-20T00:04:43.165Z,3.97
2022-11-20T00:07:15.441Z,3.20
2022-11-20T00:09:47.570Z,3.53
2022-11-20T00:12:20.255Z,3.47
2022-11-20T00:14:52.818Z,3.45
2022-11-20T00:17:25.135Z,4.18
2022-11-20T00:19:57.439Z,4.13
2022-11-20T00:22:30.095Z,3.90
2022-11-20T00:25:01.964Z,4.53
2022-11-20T00:27:34.673Z,3.78
2022-11-20T00:30:10.005Z,4.28
2022-11-20T00:32:45.093Z,4.20
2022-11-20T00:35:17.013Z,4.95
2022-11-20T00:37:50.006Z,4.00
2022-11-20T00:40:21.839Z,4.43
2022-11-20T00:42:54.390Z,4.90
2022-11-20T00:45:26.905Z,4.03
2022-11-20T00:47:59.969Z,4.28
2022-11-20T00:50:32.217Z,4.60
2022-11-20T00:53:05.274Z,5.30
2022-11-20T00:55:37.119Z,4.78
2022-11-20T00:58:14.109Z,5.07
2022-11-20T01:00:46.789Z,4.85
2022-11-20T01:03:26.610Z,4.67
2022-11-20T01:06:12.639Z,4.63
2022-11-20T01:08:46.605Z,4.35
2022-11-20T01:11:25.788Z,4.75
2022-11-20T01:14:00.610Z,4.55
2022-11-20T01:16:37.097Z,4.43
2022-11-20T01:19:17.717Z,4.20
2022-11-20T01:21:54.389Z,4.00
2022-11-20T01:24:27.495Z,4.43
2022-11-20T01:26:59.737Z,4.32
2022-11-20T01:29:32.801Z,4.57
2022-11-20T01:32:05.168Z,4.35
2022-11-20T01:34:37.881Z,3.90
2022-11-20T01:37:09.731Z,4.97
2022-11-20T01:39:42.402Z,4.97
2022-11-20T01:42:33.073Z,4.03
2022-11-20T01:46:03.394Z,4.38
2022-11-20T01:48:52.806Z,4.85
2022-11-20T01:51:47.216Z,4.40
2022-11-20T01:54:42.722Z,3.80
2022-11-20T01:57:17.078Z,3.90
2022-11-20T02:00:05.415Z,4.50
2022-11-20T02:02:50.466Z,4.32
2022-11-20T02:05:57.132Z,4.32
2022-11-20T02:08:30.134Z,4.47
2022-11-20T02:11:02.097Z,4.17
2022-11-20T02:13:44.912Z,3.70
2022-11-20T02:16:33.034Z,3.35
2022-11-20T02:19:13.287Z,3.30
2022-11-20T02:22:02.067Z,3.72
2022-11-20T02:24:35.876Z,3.10
2022-11-20T02:27:14.168Z,4.15
2022-11-20T02:30:02.157Z,3.75
2022-11-20T02:32:36.901Z,3.83
2022-11-20T02:35:29.785Z,4.03
2022-11-20T02:38:04.023Z,3.80
2022-11-20T02:40:36.391Z,3.13
2022-11-20T02:43:09.123Z,3.75
2022-11-20T02:45:41.829Z,3.45
2022-11-20T02:48:14.884Z,3.60
2022-11-20T02:50:48.411Z,3.80
2022-11-20T02:53:21.085Z,4.50
2022-11-20T02:55:52.991Z,3.80
2022-11-20T02:58:26.175Z,3.67
2022-11-20T03:00:58.201Z,3.65
2022-11-20T03:03:30.864Z,4.18
2022-11-20T03:06:02.812Z,3.63
2022-11-20T03:08:36.696Z,3.28
2022-11-20T03:11:09.010Z,3.08
2022-11-20T03:13:41.771Z,3.13
2022-11-20T03:16:20.776Z,2.97
2022-11-20T03:18:55.024Z,3.20
2022-11-20T03:21:27.227Z,3.15
2022-11-20T03:23:59.883Z,3.45
2022-11-20T03:26:32.257Z,3.42
2022-11-20T03:29:05.689Z,3.80
2022-11-20T03:31:41.815Z,3.97
2022-11-20T03:34:13.824Z,3.65
2022-11-20T03:36:46.709Z,4.18
2022-11-20T03:39:18.670Z,3.90
2022-11-20T03:41:51.080Z,3.67
2022-11-20T03:44:23.391Z,3.55
2022-11-20T03:46:56.081Z,3.63
2022-11-20T03:49:27.918Z,3.40
2022-11-20T03:52:00.565Z,4.15
2022-11-20T03:54:33.288Z,4.07
2022-11-20T03:57:05.538Z,3.70
2022-11-20T03:59:38.210Z,3.65
2022-11-20T04:02:10.187Z,3.95
2022-11-20T04:04:43.377Z,3.78
2022-11-20T04:07:15.706Z,3.80
2022-11-20T04:09:47.605Z,3.85
2022-11-20T04:12:20.732Z,3.75
2022-11-20T04:14:52.991Z,3.90
2022-11-20T04:17:26.204Z,3.78
2022-11-20T04:19:58.060Z,3.07
2022-11-20T04:22:30.840Z,3.22
2022-11-20T04:25:02.785Z,3.92
2022-11-20T04:27:36.222Z,3.00
2022-11-20T04:30:08.979Z,2.80
2022-11-20T04:32:42.104Z,3.13
2022-11-20T04:35:14.141Z,2.60
2022-11-20T04:37:46.892Z,3.33
2022-11-20T04:40:18.907Z,2.40
2022-11-20T04:42:52.101Z,2.58
2022-11-20T04:45:24.403Z,2.67
2022-11-20T04:47:57.122Z,2.50
2022-11-20T04:50:29.671Z,2.78
2022-11-20T04:53:25.533Z,2.40
2022-11-20T04:56:06.921Z,2.60
2022-11-20T04:58:39.870Z,2.30
2022-11-20T05:01:14.061Z,2.75
2022-11-20T05:03:46.571Z,2.70
2022-11-20T05:06:23.758Z,2.67
2022-11-20T05:08:55.629Z,2.30
2022-11-20T05:11:30.761Z,2.30
2022-11-20T05:14:02.640Z,2.50
2022-11-20T05:16:37.665Z,2.80
2022-11-20T05:19:10.135Z,2.60
2022-11-20T05:21:42.831Z,2.88
2022-11-20T05:24:14.674Z,3.03
2022-11-20T05:26:47.732Z,2.88
2022-11-20T05:29:20.324Z,2.78
2022-11-20T05:31:52.638Z,2.80
2022-11-20T05:34:25.733Z,2.80
2022-11-20T05:36:57.634Z,3.13
2022-11-20T05:39:30.481Z,3.40
2022-11-20T05:42:20.740Z,2.88
2022-11-20T05:44:54.840Z,3.10
2022-11-20T05:47:28.840Z,3.08
2022-11-20T05:50:02.658Z,3.00
2022-11-20T05:52:35.353Z,3.17
2022-11-20T05:55:07.756Z,3.03
2022-11-20T05:57:40.583Z,3.25
2022-11-20T06:00:13.306Z,3.05
2022-11-20T06:02:46.072Z,2.90
2022-11-20T06:05:18.022Z,2.80
2022-11-20T06:07:50.969Z,3.85
2022-11-20T06:10:24.522Z,3.55
2022-11-20T06:12:59.874Z,3.20
2022-11-20T06:15:32.125Z,3.13
2022-11-20T06:18:04.129Z,3.28
2022-11-20T06:20:41.962Z,2.75
2022-11-20T06:23:14.946Z,2.88
2022-11-20T06:25:46.780Z,3.05
2022-11-20T06:28:19.486Z,2.97
2022-11-20T06:30:51.739Z,2.88
2022-11-20T06:33:24.000Z,3.50
2022-11-20T06:36:04.462Z,3.20
2022-11-20T06:38:40.473Z,3.10
2022-11-20T06:41:20.344Z,3.67
2022-11-20T06:43:53.083Z,3.13
2022-11-20T06:46:25.843Z,4.07
2022-11-20T06:48:58.974Z,3.10
2022-11-20T06:51:32.048Z,3.75
2022-11-20T06:54:06.546Z,3.73
2022-11-20T06:56:38.388Z,3.42
2022-11-20T06:59:11.136Z,3.33
2022-11-20T07:01:43.608Z,3.10
2022-11-20T07:04:16.434Z,3.40
2022-11-20T07:06:49.386Z,3.53
2022-11-20T07:09:22.554Z,4.00
2022-11-20T07:11:54.875Z,3.45
2022-11-20T07:14:27.314Z,3.03
2022-11-20T07:17:00.017Z,3.53
2022-11-20T07:19:31.898Z,3.43
2022-11-20T07:22:04.600Z,3.75
2022-11-20T07:24:36.434Z,3.35
2022-11-20T07:27:09.116Z,3.85
2022-11-20T07:29:41.504Z,3.30
2022-11-20T07:32:13.369Z,3.27
2022-11-20T07:34:46.228Z,2.95
2022-11-20T07:37:19.038Z,3.63
2022-11-20T07:39:51.807Z,3.13
2022-11-20T07:42:24.109Z,3.30
2022-11-20T07:44:57.079Z,3.40
2022-11-20T07:47:28.964Z,2.78
2022-11-20T07:50:01.651Z,3.08
2022-11-20T07:52:33.924Z,3.10
2022-11-20T07:55:08.054Z,3.58
2022-11-20T07:57:40.574Z,2.40
2022-11-20T08:00:14.188Z,3.15
2022-11-20T08:02:46.039Z,3.53
2022-11-20T08:05:19.571Z,3.70
2022-11-20T08:07:51.839Z,3.70
2022-11-20T08:10:28.087Z,3.90
2022-11-20T08:13:19.292Z,4.30
2022-11-20T08:15:51.829Z,3.95
2022-11-20T08:18:31.070Z,3.60
2022-11-20T08:21:06.207Z,3.30
2022-11-20T08:23:38.512Z,4.17
2022-11-20T08:26:10.881Z,2.83
2022-11-20T08:28:43.610Z,3.58
2022-11-20T08:31:16.043Z,3.63
2022-11-20T08:33:48.761Z,3.45
2022-11-20T08:36:22.163Z,3.70
2022-11-20T08:38:56.389Z,3.58
2022-11-20T08:41:34.382Z,3.50
2022-11-20T08:44:08.556Z,3.83
2022-11-20T08:46:42.659Z,3.95
2022-11-20T08:49:15.464Z,3.37
2022-11-20T08:51:52.963Z,2.95
2022-11-20T08:54:24.812Z,3.75
2022-11-20T08:56:57.510Z,3.28
2022-11-20T08:59:58.706Z,3.63
2022-11-20T09:02:22.344Z,3.00
2022-11-20T09:04:57.294Z,3.03
2022-11-20T09:07:30.343Z,3.65
2022-11-20T09:12:58.760Z,3.05
2022-11-20T09:15:30.987Z,3.70
2022-11-20T09:18:05.968Z,4.20
2022-11-20T09:20:37.893Z,4.22
2022-11-20T09:23:10.589Z,3.78
2022-11-20T09:25:43.071Z,3.47
2022-11-20T09:28:15.945Z,3.43
2022-11-20T09:30:48.707Z,3.17
2022-11-20T09:33:21.003Z,3.30
2022-11-20T09:35:52.892Z,3.70
2022-11-20T09:38:25.588Z,3.58
2022-11-20T09:41:04.411Z,3.80
2022-11-20T09:44:17.909Z,3.40
2022-11-20T09:47:38.214Z,4.18
2022-11-20T09:50:51.728Z,3.40
2022-11-20T09:53:52.857Z,3.10
2022-11-20T09:56:25.314Z,3.90
2022-11-20T09:59:03.718Z,4.13
2022-11-20T10:01:39.831Z,3.78
2022-11-20T10:04:19.995Z,3.92
2022-11-20T10:07:17.175Z,3.80
2022-11-20T10:09:55.822Z,4.10
2022-11-20T10:12:59.449Z,3.40
2022-11-20T10:15:44.855Z,3.35
2022-11-20T10:18:52.373Z,3.63
2022-11-20T10:21:53.554Z,4.22
2022-11-20T10:24:58.674Z,4.20
2022-11-20T10:28:04.165Z,3.40
2022-11-20T10:30:41.940Z,3.92
2022-11-20T10:33:19.087Z,4.10
2022-11-20T10:36:08.819Z,4.03
2022-11-20T10:38:50.963Z,4.37
2022-11-20T10:41:35.942Z,3.83
2022-11-20T10:44:47.565Z,4.38
2022-11-20T10:47:19.855Z,4.15
2022-11-20T10:49:57.380Z,3.72
2022-11-20T10:52:48.713Z,4.35
2022-11-20T10:55:32.765Z,4.55
2022-11-20T10:58:21.340Z,4.20
2022-11-20T11:01:04.765Z,4.38
2022-11-20T11:03:37.743Z,4.70
2022-11-20T11:06:43.508Z,4.10
2022-11-20T11:09:35.954Z,3.95
2022-11-20T11:12:12.324Z,4.38
2022-11-20T11:14:55.322Z,4.30
2022-11-20T11:17:34.584Z,4.20
2022-11-20T11:20:17.842Z,4.15
2022-11-20T11:22:59.077Z,3.88
2022-11-20T11:25:36.936Z,4.05
2022-11-20T11:28:17.857Z,3.00
2022-11-20T11:30:50.693Z,3.40
2022-11-20T11:33:24.951Z,3.45
2022-11-20T11:36:05.583Z,3.33
2022-11-20T11:38:45.181Z,2.80
2022-11-20T11:41:25.460Z,2.92
2022-11-20T11:44:20.636Z,3.20
2022-11-20T11:46:57.016Z,3.40
2022-11-20T11:49:29.712Z,2.58
2022-11-20T11:52:11.906Z,3.03
2022-11-20T11:54:56.796Z,2.95
2022-11-20T11:57:58.840Z,2.90
2022-11-20T12:00:31.922Z,2.50
2022-11-20T12:03:17.670Z,2.80
2022-11-20T12:05:58.326Z,3.05
2022-11-20T12:08:52.961Z,2.75
2022-11-20T12:11:48.602Z,3.00
2022-11-20T12:14:37.066Z,2.58
2022-11-20T12:17:14.169Z,2.90
2022-11-20T12:19:46.240Z,2.67
2022-11-20T12:23:11.237Z,2.58
2022-11-20T12:25:48.968Z,2.28
2022-11-20T12:28:54.230Z,2.20
2022-11-20T12:32:15.853Z,2.42
2022-11-20T12:35:32.563Z,3.22
2022-11-20T12:38:35.172Z,3.10
2022-11-20T12:41:35.807Z,3.10
2022-11-20T12:45:10.603Z,2.80
2022-11-20T12:48:19.156Z,3.35
2022-11-20T12:51:26.654Z,3.50
2022-11-20T12:54:30.269Z,2.92
2022-11-20T12:57:24.199Z,4.55
2022-11-20T13:00:11.755Z,3.95
2022-11-20T13:03:22.656Z,3.33
2022-11-20T13:06:16.151Z,3.22
2022-11-20T13:08:57.381Z,3.88
2022-11-20T13:11:44.769Z,3.42
2022-11-20T13:14:38.440Z,2.50
2022-11-20T13:17:38.959Z,2.80
2022-11-20T13:20:18.326Z,3.00
2022-11-20T13:22:56.379Z,2.85
2022-11-20T13:25:31.214Z,2.95
2022-11-20T13:28:31.474Z,2.75
2022-11-20T13:31:03.370Z,2.63
2022-11-20T13:33:38.751Z,2.30
2022-11-20T13:36:27.055Z,2.70
2022-11-20T13:39:00.199Z,2.50
2022-11-20T13:41:42.278Z,2.50
2022-11-20T13:44:26.534Z,2.78
2022-11-20T13:46:58.709Z,2.60
2022-11-20T13:49:45.362Z,2.80
2022-11-20T13:52:42.183Z,2.72
2022-11-20T13:55:44.364Z,2.60
2022-11-20T13:58:32.798Z,2.70
2022-11-20T14:04:20.704Z,3.15
2022-11-20T14:06:52.883Z,2.90
2022-11-20T14:09:35.708Z,2.30
2022-11-20T14:12:20.534Z,2.38
2022-11-20T14:14:55.864Z,2.92
2022-11-20T14:17:35.603Z,3.05
2022-11-20T14:20:16.128Z,2.85
2022-11-20T14:22:54.023Z,2.90
2022-11-20T14:25:32.401Z,2.60
2022-11-20T14:28:05.737Z,2.70
2022-11-20T14:30:46.386Z,3.03
2022-11-20T14:33:20.767Z,3.13
2022-11-20T14:35:56.932Z,3.30
2022-11-20T14:38:32.625Z,3.08
2022-11-20T14:41:20.664Z,2.30
2022-11-20T14:43:58.615Z,3.35
2022-11-20T14:46:33.072Z,3.58
2022-11-20T14:49:05.750Z,3.95
2022-11-20T14:51:46.271Z,2.85
2022-11-20T14:54:23.635Z,3.13
2022-11-20T14:57:02.850Z,2.80
2022-11-20T14:59:36.225Z,2.80
2022-11-20T15:02:13.116Z,2.60
2022-11-20T15:04:59.394Z,2.33
2022-11-20T15:07:39.228Z,2.90
2022-11-20T15:10:25.019Z,2.72
2022-11-20T15:13:09.754Z,2.90
2022-11-20T15:15:50.381Z,2.40
2022-11-20T15:18:45.756Z,2.65
2022-11-20T15:21:22.196Z,2.72
2022-11-20T15:23:54.668Z,3.03
2022-11-20T15:26:29.284Z,3.22
2022-11-20T15:29:01.412Z,2.97
2022-11-20T15:31:34.133Z,2.70
2022-11-20T15:34:12.103Z,3.80
2022-11-20T15:36:45.693Z,2.60
2022-11-20T15:39:18.809Z,2.53
2022-11-20T15:41:51.989Z,2.72
2022-11-20T15:44:24.240Z,2.55
2022-11-20T15:46:57.230Z,3.03
2022-11-20T15:49:29.504Z,3.38
2022-11-20T15:52:02.270Z,2.45
2022-11-20T15:54:34.143Z,3.17
2022-11-20T15:57:07.538Z,2.60
2022-11-20T15:59:42.570Z,2.65
2022-11-20T16:02:19.383Z,3.38
2022-11-20T16:04:52.732Z,3.00
2022-11-20T16:07:24.937Z,2.70
2022-11-20T16:09:58.042Z,2.90
2022-11-20T16:12:48.268Z,2.80
2022-11-20T16:15:39.343Z,2.78
2022-11-20T16:18:14.483Z,3.00
2022-11-20T16:20:50.675Z,3.20
2022-11-20T16:23:22.806Z,2.08
2022-11-20T16:25:54.735Z,3.17
2022-11-20T16:28:27.479Z,2.55
2022-11-20T16:31:19.299Z,2.42
2022-11-20T16:33:56.860Z,2.10
2022-11-20T16:36:30.611Z,2.40
2022-11-20T16:39:04.323Z,2.30
2022-11-20T16:41:37.692Z,3.13
2022-11-20T16:44:12.072Z,3.03
2022-11-20T16:46:44.360Z,2.22
2022-11-20T16:49:16.244Z,3.08
2022-11-20T16:51:49.073Z,3.08
2022-11-20T16:54:21.684Z,2.75
2022-11-20T16:56:54.982Z,2.63
2022-11-20T16:59:27.466Z,2.65
2022-11-20T17:02:00.274Z,2.95
2022-11-20T17:04:32.399Z,2.92
2022-11-20T17:07:08.308Z,3.30
2022-11-20T17:09:41.324Z,3.17
2022-11-20T17:12:14.072Z,2.40
2022-11-20T17:14:46.660Z,3.35
2022-11-20T17:17:19.759Z,2.40
2022-11-20T17:19:52.973Z,2.88
2022-11-20T17:22:25.601Z,2.55
2022-11-20T17:24:58.368Z,2.92
2022-11-20T17:27:30.215Z,2.67
2022-11-20T17:30:02.946Z,2.63
2022-11-20T17:32:35.269Z,2.60
2022-11-20T17:35:08.897Z,2.85
2022-11-20T17:37:41.753Z,2.55
2022-11-20T17:40:14.505Z,2.38
2022-11-20T17:42:46.631Z,2.10
2022-11-20T17:45:19.370Z,2.25
2022-11-20T17:47:51.654Z,2.75
2022-11-20T17:50:23.972Z,2.30
2022-11-20T17:52:55.908Z,2.28
2022-11-20T17:55:52.799Z,2.30
2022-11-20T17:58:29.044Z,2.55
2022-11-20T18:01:08.554Z,2.30
2022-11-20T18:03:41.850Z,2.83
2022-11-20T18:06:19.194Z,2.50
2022-11-20T18:08:52.618Z,2.15
2022-11-20T18:11:27.933Z,2.30
2022-11-20T18:14:22.648Z,3.35
2022-11-20T18:17:02.483Z,2.13
2022-11-20T18:19:42.641Z,2.42
2022-11-20T18:22:24.251Z,2.90
2022-11-20T18:24:59.483Z,2.63
2022-11-20T18:27:32.181Z,2.65
2022-11-20T18:30:05.755Z,2.37
2022-11-20T18:32:38.256Z,2.70
2022-11-20T18:35:10.354Z,3.15
2022-11-20T18:37:43.268Z,2.63
2022-11-20T18:40:15.836Z,2.95
2022-11-20T18:43:07.362Z,2.23
2022-11-20T18:45:42.911Z,3.13
2022-11-20T18:48:15.019Z,1.90
2022-11-20T18:50:48.177Z,2.05
2022-11-20T18:53:20.121Z,2.25
2022-11-20T18:55:54.237Z,3.37
2022-11-20T18:58:28.361Z,2.22
2022-11-20T19:01:09.122Z,2.90
2022-11-20T19:03:41.517Z,2.53
2022-11-20T19:06:14.244Z,2.63
2022-11-20T19:08:46.971Z,2.47
2022-11-20T19:11:19.603Z,2.30
2022-11-20T19:13:52.693Z,2.20
2022-11-20T19:16:24.568Z,2.10
2022-11-20T19:19:03.223Z,2.92
2022-11-20T19:21:36.657Z,2.13
2022-11-20T19:24:09.834Z,2.47
2022-11-20T19:26:42.656Z,2.20
2022-11-20T19:29:16.127Z,2.55
2022-11-20T19:31:48.994Z,2.63
2022-11-20T19:34:20.962Z,2.90
2022-11-20T19:36:54.037Z,2.55
2022-11-20T19:39:27.494Z,1.92
2022-11-20T19:42:00.898Z,2.40
2022-11-20T19:44:34.277Z,2.67
2022-11-20T19:47:13.022Z,2.73
2022-11-20T19:49:46.679Z,3.25
2022-11-20T19:52:19.023Z,3.20
2022-11-20T19:54:51.369Z,2.72
2022-11-20T19:57:24.493Z,2.80
2022-11-20T19:59:56.798Z,2.50
2022-11-20T20:02:29.665Z,2.60
2022-11-20T20:05:01.599Z,2.00
2022-11-20T20:07:34.318Z,2.00
2022-11-20T20:10:07.339Z,1.75
2022-11-20T20:12:40.120Z,2.20
2022-11-20T20:15:12.077Z,2.00
2022-11-20T20:17:45.226Z,1.90
2022-11-20T20:20:18.031Z,1.95
2022-11-20T20:22:50.428Z,1.77
2022-11-20T20:25:23.186Z,2.00
2022-11-20T20:27:56.350Z,1.75
2022-11-20T20:30:31.430Z,1.60
2022-11-20T20:33:04.358Z,1.83
2022-11-20T20:35:41.642Z,1.73
2022-11-20T20:38:14.867Z,1.80
2022-11-20T20:40:50.835Z,1.60
2022-11-20T20:43:23.635Z,1.65
2022-11-20T20:45:56.949Z,1.70
2022-11-20T20:48:29.452Z,2.25
2022-11-20T20:51:09.012Z,1.80
2022-11-20T20:53:42.168Z,2.08
2022-11-20T20:56:15.361Z,2.47
2022-11-20T20:58:48.013Z,1.75
2022-11-20T21:01:21.864Z,1.63
2022-11-20T21:03:54.689Z,1.60
2022-11-20T21:06:28.270Z,2.08
2022-11-20T21:09:00.995Z,2.10
2022-11-20T21:11:33.596Z,1.80
2022-11-20T21:14:06.980Z,2.30
2022-11-20T21:16:43.922Z,1.90
2022-11-20T21:19:17.484Z,2.20
2022-11-20T21:21:59.274Z,1.90
2022-11-20T21:24:36.940Z,2.28
2022-11-20T21:27:09.550Z,1.85
2022-11-20T21:29:41.873Z,2.30
2022-11-20T21:32:15.304Z,2.30
2022-11-20T21:34:47.892Z,1.80
2022-11-20T21:37:21.248Z,1.98
2022-11-20T21:39:53.811Z,1.90
2022-11-20T21:42:27.229Z,2.03
2022-11-20T21:44:59.771Z,2.20
2022-11-20T21:47:32.754Z,2.72
2022-11-20T21:50:05.348Z,2.00
2022-11-20T21:52:37.951Z,1.88
2022-11-20T21:55:10.800Z,1.93
2022-11-20T21:57:46.062Z,1.80
2022-11-20T22:00:40.405Z,2.42
2022-11-20T22:03:12.902Z,1.80
2022-11-20T22:05:57.606Z,1.80
2022-11-20T22:08:30.234Z,2.10
2022-11-20T22:11:12.165Z,2.30
2022-11-20T22:14:03.565Z,2.20
2022-11-20T22:16:38.006Z,2.10
2022-11-20T22:19:10.071Z,2.20
2022-11-20T22:21:42.554Z,2.20
2022-11-20T22:24:23.242Z,2.47
2022-11-20T22:26:56.520Z,2.10
2022-11-20T22:29:28.493Z,2.60
2022-11-20T22:32:01.765Z,2.40
2022-11-20T22:34:34.139Z,2.37
2022-11-20T22:37:06.918Z,2.40
2022-11-20T22:39:39.193Z,2.17
2022-11-20T22:42:12.297Z,2.17
2022-11-20T22:44:44.617Z,2.35
2022-11-20T22:47:16.534Z,2.20
2022-11-20T22:49:49.631Z,2.42
2022-11-20T22:52:22.319Z,2.28
2022-11-20T22:54:54.176Z,2.42
2022-11-20T22:57:26.477Z,2.55
2022-11-20T22:59:58.741Z,2.33
2022-11-20T23:02:31.578Z,2.28
2022-11-20T23:05:04.196Z,2.30
2022-11-20T23:07:41.110Z,2.53
2022-11-20T23:10:13.937Z,2.38
2022-11-20T23:12:46.786Z,2.50
2022-11-20T23:15:19.482Z,2.50
2022-11-20T23:17:52.355Z,2.40
2022-11-20T23:20:24.692Z,2.42
2022-11-20T23:22:57.862Z,2.58
2022-11-20T23:25:30.193Z,2.53
2022-11-20T23:28:02.515Z,2.40
2022-11-20T23:30:35.090Z,2.38
2022-11-20T23:33:07.904Z,2.42
2022-11-20T23:35:40.278Z,2.20
2022-11-20T23:38:13.011Z,2.47
2022-11-20T23:40:49.877Z,2.40
2022-11-20T23:43:23.474Z,2.33
2022-11-20T23:45:58.846Z,2.30
2022-11-20T23:48:38.134Z,2.47
2022-11-20T23:51:10.665Z,2.93
2022-11-20T23:53:43.443Z,2.45
2022-11-20T23:56:15.361Z,2.42
2022-11-20T23:58:48.087Z,2.30
